createdAt,value
2018-08-30T00:01:39.868Z,82.12
2018-08-30T00:05:04.813Z,80.99
2018-08-30T00:08:29.543Z,80.49
2018-08-30T00:11:54.240Z,79.85
2018-08-30T00:15:19.000Z,79.65
2018-08-30T00:18:44.188Z,78.81
2018-08-30T00:22:08.991Z,77.46
2018-08-30T00:25:33.731Z,81.36
2018-08-30T00:28:58.338Z,81.13
2018-08-30T00:32:23.009Z,80.40
2018-08-30T00:35:47.683Z,83.01
2018-08-30T00:39:12.384Z,82.88
2018-08-30T00:42:37.045Z,81.25
2018-08-30T00:46:01.749Z,84.71
2018-08-30T00:49:26.454Z,85.99
2018-08-30T00:52:51.088Z,85.97
2018-08-30T00:56:15.768Z,87.49
2018-08-30T00:59:40.427Z,89.62
2018-08-30T01:03:05.172Z,88.20
2018-08-30T01:06:29.934Z,87.83
2018-08-30T01:09:55.024Z,88.88
2018-08-30T01:13:19.705Z,88.91
2018-08-30T01:16:44.388Z,86.74
2018-08-30T01:20:09.880Z,84.74
2018-08-30T01:23:34.698Z,87.77
2018-08-30T01:26:59.346Z,86.58
2018-08-30T01:30:24.112Z,86.11
2018-08-30T01:33:48.828Z,86.87
2018-08-30T01:37:13.752Z,86.89
2018-08-30T01:40:38.400Z,86.37
2018-08-30T01:44:03.188Z,85.62
2018-08-30T01:47:27.896Z,86.69
2018-08-30T01:50:52.558Z,86.87
2018-08-30T01:54:17.202Z,87.29
2018-08-30T01:57:41.860Z,87.39
2018-08-30T02:01:06.640Z,86.61
2018-08-30T02:04:31.849Z,87.79
2018-08-30T02:07:56.590Z,87.83
2018-08-30T02:11:21.354Z,88.45
2018-08-30T02:14:45.982Z,87.57
2018-08-30T02:18:10.653Z,88.89
2018-08-30T02:22:59.694Z,89.18
2018-08-30T02:26:24.373Z,88.47
2018-08-30T02:29:48.973Z,88.04
2018-08-30T02:33:13.663Z,88.40
2018-08-30T02:36:38.345Z,88.98
2018-08-30T02:40:03.028Z,88.61
2018-08-30T02:43:27.778Z,88.04
2018-08-30T02:46:52.476Z,86.75
2018-08-30T02:50:17.184Z,88.90
2018-08-30T02:53:41.950Z,87.97
2018-08-30T02:57:06.629Z,86.42
2018-08-30T03:00:31.253Z,86.72
2018-08-30T03:03:55.895Z,88.00
2018-08-30T03:07:20.529Z,88.27
2018-08-30T03:10:45.186Z,87.60
2018-08-30T03:14:09.871Z,86.67
2018-08-30T03:17:34.824Z,87.58
2018-08-30T03:20:59.485Z,87.14
2018-08-30T03:24:24.224Z,89.16
2018-08-30T03:27:48.969Z,88.57
2018-08-30T03:31:13.601Z,88.89
2018-08-30T03:34:38.242Z,88.52
2018-08-30T03:38:02.955Z,86.64
2018-08-30T03:41:27.660Z,86.89
2018-08-30T03:44:52.332Z,83.81
2018-08-30T03:48:17.099Z,84.77
2018-08-30T03:51:41.761Z,84.00
2018-08-30T03:55:06.655Z,84.71
2018-08-30T04:02:06.198Z,86.06
2018-08-30T04:05:30.936Z,84.54
2018-08-30T04:08:55.603Z,85.42
2018-08-30T04:12:20.262Z,85.60
2018-08-30T04:15:44.893Z,87.49
2018-08-30T04:19:09.578Z,88.03
2018-08-30T04:22:34.271Z,88.34
2018-08-30T04:25:58.992Z,89.79
2018-08-30T04:29:23.668Z,89.84
2018-08-30T04:32:48.329Z,88.91
2018-08-30T04:36:12.992Z,90.49
2018-08-30T04:39:37.670Z,90.12
2018-08-30T04:43:02.352Z,89.22
2018-08-30T04:46:27.059Z,87.56
2018-08-30T04:49:51.762Z,88.52
2018-08-30T04:53:16.429Z,89.19
2018-08-30T04:56:41.851Z,89.70
2018-08-30T05:00:07.426Z,89.43
2018-08-30T05:03:32.119Z,89.27
2018-08-30T05:06:57.135Z,89.33
2018-08-30T05:10:21.936Z,88.99
2018-08-30T05:13:46.600Z,86.31
2018-08-30T05:17:11.411Z,87.17
2018-08-30T05:20:36.348Z,87.29
2018-08-30T05:24:01.151Z,87.72
2018-08-30T05:27:26.151Z,87.55
2018-08-30T05:30:51.984Z,87.50
2018-08-30T05:34:18.305Z,85.96
2018-08-30T05:37:44.558Z,86.02
2018-08-30T05:41:09.563Z,85.93
2018-08-30T05:44:34.632Z,85.74
2018-08-30T05:48:00.519Z,85.73
2018-08-30T05:51:25.228Z,83.72
2018-08-30T05:54:49.910Z,84.36
2018-08-30T05:58:14.571Z,84.09
2018-08-30T06:01:39.235Z,82.53
2018-08-30T06:05:03.999Z,82.40
2018-08-30T06:08:28.841Z,77.54
2018-08-30T06:11:53.491Z,74.38
2018-08-30T06:15:18.147Z,76.46
2018-08-30T06:18:42.807Z,78.09
2018-08-30T06:22:07.528Z,78.73
2018-08-30T06:25:32.208Z,77.46
2018-08-30T06:28:57.652Z,77.03
2018-08-30T06:32:22.390Z,75.51
2018-08-30T06:35:47.238Z,77.57
2018-08-30T06:39:11.885Z,76.50
2018-08-30T06:42:36.533Z,75.66
2018-08-30T06:47:25.701Z,76.81
2018-08-30T06:50:51.211Z,77.11
2018-08-30T06:54:16.046Z,75.28
2018-08-30T06:57:44.181Z,73.94
2018-08-30T07:01:10.321Z,74.24
2018-08-30T07:04:35.793Z,75.22
2018-08-30T07:08:01.419Z,74.81
2018-08-30T07:11:26.333Z,74.96
2018-08-30T07:14:51.128Z,74.54
2018-08-30T07:18:16.913Z,74.08
2018-08-30T07:21:41.645Z,74.22
2018-08-30T07:25:06.819Z,73.06
2018-08-30T07:28:40.448Z,73.42
2018-08-30T07:32:05.870Z,73.09
2018-08-30T07:35:30.509Z,73.01
2018-08-30T07:38:55.291Z,72.99
2018-08-30T07:42:20.055Z,72.53
2018-08-30T07:45:44.679Z,71.74
2018-08-30T07:49:10.022Z,72.47
2018-08-30T07:52:34.637Z,70.62
2018-08-30T07:55:59.308Z,70.56
2018-08-30T07:59:24.033Z,70.09
2018-08-30T08:02:48.755Z,70.03
2018-08-30T08:06:13.382Z,69.56
2018-08-30T08:09:38.098Z,69.14
2018-08-30T08:13:02.759Z,69.32
2018-08-30T08:16:27.477Z,70.45
2018-08-30T08:19:52.157Z,68.35
2018-08-30T08:23:16.821Z,69.06
2018-08-30T08:26:41.473Z,69.15
2018-08-30T08:30:06.426Z,67.16
2018-08-30T08:33:31.110Z,67.24
2018-08-30T08:36:55.900Z,67.05
2018-08-30T08:40:20.569Z,66.63
2018-08-30T08:43:45.319Z,66.53
2018-08-30T08:47:10.085Z,66.50
2018-08-30T08:50:34.825Z,66.81
2018-08-30T08:53:59.614Z,67.77
2018-08-30T08:57:24.344Z,68.02
2018-08-30T09:00:49.139Z,66.30
2018-08-30T09:04:14.022Z,66.65
2018-08-30T09:07:38.945Z,67.08
2018-08-30T09:11:03.661Z,66.77
2018-08-30T09:14:28.360Z,67.79
2018-08-30T09:17:53.117Z,67.68
2018-08-30T09:21:17.750Z,68.48
2018-08-30T09:24:42.723Z,68.13
2018-08-30T09:28:07.418Z,67.71
2018-08-30T09:31:32.048Z,67.37
2018-08-30T09:34:56.780Z,66.40
2018-08-30T09:38:21.408Z,66.02
2018-08-30T09:41:46.094Z,66.68
2018-08-30T09:45:10.763Z,66.40
2018-08-30T09:48:35.420Z,66.09
2018-08-30T09:52:00.091Z,66.39
2018-08-30T09:55:24.770Z,65.92
2018-08-30T09:58:49.435Z,65.41
2018-08-30T10:02:19.292Z,65.61
2018-08-30T10:05:43.977Z,64.41
2018-08-30T10:09:10.871Z,65.48
2018-08-30T10:12:35.710Z,63.57
2018-08-30T10:16:00.567Z,62.32
2018-08-30T10:19:25.136Z,62.01
2018-08-30T10:22:49.841Z,61.78
2018-08-30T10:26:14.609Z,62.69
2018-08-30T10:29:39.453Z,62.35
2018-08-30T10:33:13.137Z,63.57
2018-08-30T10:36:37.980Z,62.64
2018-08-30T10:40:02.878Z,62.94
2018-08-30T10:43:27.691Z,62.50
2018-08-30T10:46:52.383Z,62.76
2018-08-30T10:50:21.255Z,62.49
2018-08-30T10:53:46.078Z,62.00
2018-08-30T10:57:10.924Z,62.44
2018-08-30T11:00:36.038Z,60.89
2018-08-30T11:04:01.251Z,61.76
2018-08-30T11:07:26.240Z,60.11
2018-08-30T11:10:51.061Z,61.19
2018-08-30T11:14:15.996Z,61.39
2018-08-30T11:17:40.671Z,61.11
2018-08-30T11:21:05.416Z,60.48
2018-08-30T11:24:30.241Z,60.48
2018-08-30T11:27:55.043Z,59.09
2018-08-30T11:31:19.810Z,59.27
2018-08-30T11:34:44.568Z,58.83
2018-08-30T11:38:09.249Z,59.17
2018-08-30T11:41:34.127Z,59.06
2018-08-30T11:44:58.733Z,57.82
2018-08-30T11:48:23.509Z,59.67
2018-08-30T11:53:12.638Z,59.34
2018-08-30T11:56:37.298Z,59.43
2018-08-30T12:00:01.984Z,59.48
2018-08-30T12:03:26.659Z,59.74
2018-08-30T12:06:51.377Z,60.10
2018-08-30T12:10:16.140Z,59.81
2018-08-30T12:13:40.790Z,59.32
2018-08-30T12:17:05.555Z,59.12
2018-08-30T12:20:30.359Z,59.57
2018-08-30T12:23:55.049Z,58.71
2018-08-30T12:27:19.691Z,58.71
2018-08-30T12:30:44.396Z,57.66
2018-08-30T12:34:09.189Z,57.00
2018-08-30T12:37:33.923Z,56.49
2018-08-30T12:40:58.689Z,55.53
2018-08-30T12:44:23.341Z,54.62
2018-08-30T12:47:48.040Z,53.24
2018-08-30T12:51:12.662Z,53.72
2018-08-30T12:54:37.542Z,53.08
2018-08-30T12:58:02.219Z,52.79
2018-08-30T13:01:27.022Z,54.26
2018-08-30T13:04:51.706Z,54.45
2018-08-30T13:08:16.588Z,55.07
2018-08-30T13:11:41.198Z,54.68
2018-08-30T13:15:06.213Z,54.37
2018-08-30T13:18:30.546Z,53.40
2018-08-30T13:21:55.216Z,52.66
2018-08-30T13:25:19.883Z,51.93
2018-08-30T13:28:44.808Z,51.77
2018-08-30T13:32:09.583Z,51.32
2018-08-30T13:35:34.271Z,53.02
2018-08-30T13:38:59.101Z,52.79
2018-08-30T13:42:23.767Z,52.19
2018-08-30T13:45:48.492Z,50.56
2018-08-30T13:49:13.305Z,50.54
2018-08-30T13:52:37.867Z,48.65
2018-08-30T13:56:02.665Z,47.79
2018-08-30T13:59:27.478Z,51.38
2018-08-30T14:02:51.770Z,49.40
2018-08-30T14:06:16.720Z,50.24
2018-08-30T14:09:41.347Z,50.21
2018-08-30T14:13:08.645Z,50.58
2018-08-30T14:16:34.796Z,50.35
2018-08-30T14:20:00.266Z,49.79
2018-08-30T14:23:26.330Z,50.34
2018-08-30T14:26:52.672Z,51.92
2018-08-30T14:30:17.801Z,53.24
2018-08-30T14:33:42.948Z,54.20
2018-08-30T14:37:07.871Z,54.86
2018-08-30T14:40:33.386Z,55.87
2018-08-30T14:44:00.708Z,56.15
2018-08-30T14:47:26.049Z,56.38
2018-08-30T14:50:50.984Z,56.58
2018-08-30T14:54:15.948Z,56.33
2018-08-30T14:57:41.083Z,55.93
2018-08-30T15:01:06.338Z,56.27
2018-08-30T15:04:31.542Z,56.53
2018-08-30T15:07:56.792Z,55.85
2018-08-30T15:11:22.360Z,56.00
2018-08-30T15:14:47.340Z,55.56
2018-08-30T15:18:12.089Z,54.67
2018-08-30T15:21:36.795Z,55.00
2018-08-30T15:25:01.976Z,54.54
2018-08-30T15:28:27.304Z,55.12
2018-08-30T15:31:51.868Z,54.11
2018-08-30T15:35:16.594Z,54.63
2018-08-30T15:38:41.271Z,54.89
2018-08-30T15:42:06.109Z,55.18
2018-08-30T15:45:30.893Z,55.17
2018-08-30T15:48:55.674Z,55.95
2018-08-30T15:52:20.269Z,56.20
2018-08-30T15:55:45.121Z,56.50
2018-08-30T15:59:09.818Z,56.84
2018-08-30T16:02:34.477Z,57.49
2018-08-30T16:05:59.317Z,57.60
2018-08-30T16:09:24.057Z,57.93
2018-08-30T16:12:48.830Z,58.14
2018-08-30T16:16:13.567Z,58.73
2018-08-30T16:19:38.535Z,58.58
2018-08-30T16:23:20.285Z,57.79
2018-08-30T16:26:45.041Z,57.92
2018-08-30T16:33:44.415Z,56.89
2018-08-30T16:37:09.287Z,57.34
2018-08-30T16:41:59.634Z,55.69
2018-08-30T16:45:24.516Z,56.36
2018-08-30T16:48:49.492Z,57.48
2018-08-30T16:52:14.159Z,58.02
2018-08-30T16:55:38.964Z,56.93
2018-08-30T16:59:03.721Z,57.05
2018-08-30T17:02:28.351Z,58.15
2018-08-30T17:05:53.331Z,58.46
2018-08-30T17:09:18.016Z,59.30
2018-08-30T17:12:45.141Z,58.86
2018-08-30T17:16:09.846Z,59.12
2018-08-30T17:19:35.081Z,59.44
2018-08-30T17:22:59.751Z,59.59
2018-08-30T17:26:24.394Z,59.77
2018-08-30T17:29:49.059Z,60.28
2018-08-30T17:33:13.667Z,60.37
2018-08-30T17:36:38.328Z,60.48
2018-08-30T17:40:03.025Z,60.75
2018-08-30T17:43:27.713Z,60.87
2018-08-30T17:46:52.466Z,61.50
2018-08-30T17:50:17.897Z,61.43
2018-08-30T17:53:42.707Z,61.59
2018-08-30T17:57:07.545Z,62.80
2018-08-30T18:00:33.441Z,62.97
2018-08-30T18:03:58.213Z,62.70
2018-08-30T18:07:23.353Z,62.58
2018-08-30T18:10:48.162Z,62.80
2018-08-30T18:14:13.073Z,63.19
2018-08-30T18:17:37.871Z,63.70
2018-08-30T18:21:02.571Z,64.46
2018-08-30T18:24:27.374Z,65.22
2018-08-30T18:27:52.101Z,65.65
2018-08-30T18:31:17.177Z,66.70
2018-08-30T18:34:42.002Z,64.98
2018-08-30T18:38:06.782Z,64.92
2018-08-30T18:41:32.463Z,66.16
2018-08-30T18:44:57.414Z,66.05
2018-08-30T18:48:22.212Z,65.86
2018-08-30T18:51:47.010Z,65.37
2018-08-30T18:55:11.793Z,65.32
2018-08-30T18:58:36.584Z,65.27
2018-08-30T19:02:01.337Z,64.68
2018-08-30T19:05:26.294Z,66.55
2018-08-30T19:08:50.976Z,64.26
2018-08-30T19:12:15.740Z,66.01
2018-08-30T19:15:45.634Z,65.60
2018-08-30T19:19:13.361Z,65.37
2018-08-30T19:22:38.370Z,67.26
2018-08-30T19:26:03.129Z,68.29
2018-08-30T19:29:28.261Z,67.59
2018-08-30T19:32:53.053Z,66.60
2018-08-30T19:36:23.304Z,67.11
2018-08-30T19:39:48.248Z,66.08
2018-08-30T19:43:13.535Z,64.05
2018-08-30T19:46:38.258Z,65.29
2018-08-30T19:50:02.973Z,66.00
2018-08-30T19:53:27.746Z,67.93
2018-08-30T19:56:52.412Z,68.64
2018-08-30T20:00:17.234Z,68.26
2018-08-30T20:03:42.722Z,68.59
2018-08-30T20:07:07.412Z,68.38
2018-08-30T20:10:32.137Z,69.45
2018-08-30T20:13:56.858Z,71.09
2018-08-30T20:17:21.627Z,72.07
2018-08-30T20:20:46.407Z,71.81
2018-08-30T20:24:11.293Z,71.15
2018-08-30T20:27:36.284Z,71.65
2018-08-30T20:31:01.034Z,71.48
2018-08-30T20:34:25.826Z,71.90
2018-08-30T20:37:50.492Z,71.93
2018-08-30T20:41:15.321Z,72.32
2018-08-30T20:44:39.924Z,72.25
2018-08-30T20:48:06.413Z,71.38
2018-08-30T20:51:31.161Z,72.78
2018-08-30T20:54:55.921Z,74.19
2018-08-30T20:58:20.689Z,73.21
2018-08-30T21:01:45.507Z,73.10
2018-08-30T21:05:10.222Z,73.23
2018-08-30T21:08:35.010Z,71.05
2018-08-30T21:11:59.678Z,70.22
2018-08-30T21:15:24.353Z,68.92
2018-08-30T21:18:49.009Z,69.01
2018-08-30T21:22:13.760Z,72.73
2018-08-30T21:25:38.467Z,70.07
2018-08-30T21:29:03.181Z,72.42
2018-08-30T21:32:27.910Z,73.45
2018-08-30T21:35:52.684Z,72.60
2018-08-30T21:39:20.935Z,72.78
2018-08-30T21:42:45.640Z,72.84
2018-08-30T21:46:11.437Z,74.25
2018-08-30T21:49:36.182Z,74.74
2018-08-30T21:53:00.900Z,74.07
2018-08-30T21:56:25.716Z,74.58
2018-08-30T21:59:50.414Z,75.42
2018-08-30T22:03:15.095Z,75.04
2018-08-30T22:06:39.835Z,73.47
2018-08-30T22:10:04.720Z,74.68
2018-08-30T22:13:29.482Z,74.72
2018-08-30T22:16:54.339Z,75.05
2018-08-30T22:20:18.989Z,73.94
2018-08-30T22:23:44.219Z,74.49
2018-08-30T22:27:08.945Z,72.68
2018-08-30T22:30:33.594Z,73.28
2018-08-30T22:33:58.249Z,74.51
2018-08-30T22:37:22.987Z,73.89
2018-08-30T22:40:47.730Z,74.46
2018-08-30T22:44:12.313Z,73.70
2018-08-30T22:47:36.976Z,74.28
2018-08-30T22:51:01.609Z,73.09
2018-08-30T22:54:26.300Z,73.71
2018-08-30T22:57:50.986Z,74.13
2018-08-30T23:01:15.727Z,73.84
2018-08-30T23:04:40.383Z,72.33
2018-08-30T23:08:05.118Z,72.79
2018-08-30T23:11:30.455Z,74.43
2018-08-30T23:14:55.137Z,73.61
2018-08-30T23:18:19.792Z,75.87
2018-08-30T23:21:44.495Z,74.05
2018-08-30T23:25:09.302Z,74.66
2018-08-30T23:28:33.929Z,74.23
2018-08-30T23:31:58.581Z,74.58
2018-08-30T23:35:23.334Z,75.09
2018-08-30T23:38:48.124Z,74.56
2018-08-30T23:42:12.829Z,75.92
2018-08-30T23:45:37.487Z,76.62
2018-08-30T23:49:02.222Z,76.08
2018-08-30T23:52:26.975Z,76.23
2018-08-30T23:55:51.628Z,76.07
2018-08-30T23:59:33.641Z,76.94
